Cactus Peak, Santa Catalina Island Weather observations

Data are for 10 minute period ending at time listed.
 Day   Time   Solar   Ave.   Ave.  Ave.  Vector    Max.   Stn.    Total
  of    of     Rad.   Air    Rel.  Wind   Wind     Wind   Baro.  Precip.
Year   Day            Temp.  Hum.  Speed  Dir.     Gust   Pres.         
2026   (PST)   W/m2    F      %     mph   deg.      mph    mb.     in.  
------------------------------------------------------------------------
 128    1:10    0.0    54   99.9     4     28.6     6.6    999.0   0.00  
 128    1:20    0.0    54   99.9     4     34.7     6.6    999.0   0.00  
 128    1:30    0.0    54   99.9     5     33.4     7.8    999.0   0.00  
 128    1:40    0.0    54   99.9     3     39.7     6.0    999.0   0.00  
 128    1:50    0.0    54   99.9     2     55.5     5.4    999.0   0.00  
 128    2:00    0.0    54   99.9     1     40.8     3.6    999.0   0.00  
 128    2:10    0.0    54   99.9     1    124.8     3.0    999.0   0.00  
 128    2:20    0.0    54   99.9     2    171.3     4.8    999.0   0.00  
 128    2:30    0.0    54   99.9     3    165.9     6.0    999.0   0.00  
 128    2:40    0.0    54   99.9     2    165.1     4.8    999.0   0.00  
 128    2:50    0.0    54   99.9     2    158.3     4.2    999.0   0.00  
 128    3:00    0.0    54   99.9     3    175.1     6.0    999.0   0.00  
 128    3:10    0.0    54   99.9     2    172.4     4.8    999.0   0.00  
 128    3:20    0.0    54   99.9     3    166.9     5.4    999.0   0.00  
 128    3:30    0.0    54   99.9     4    169.6     6.6    999.0   0.00  
 128    3:40    0.0    54   99.9     5    170.4     8.4    999.0   0.00  
 128    3:50    0.0    54   99.9     5    170.7     8.4    999.0   0.00  
 128    4:00    0.0    54   99.9     4    165.5     6.6    999.0   0.00  
 128    4:10    0.0    54   99.9     4    175.3     7.8    999.0   0.00  
 128    4:20    0.0    50   99.9     5    168.3     8.4    999.0   0.00  
 128    4:30    0.0    50   99.9     4    174.5     8.4    999.0   0.00  
 128    4:40    0.0    52   99.9     6    162.7     9.0    999.0   0.00  
 128    4:50    0.0    53   99.9     5    165.5     8.4    999.0   0.00  
 128    5:00    0.0    53   99.9     5    166.2     8.4    999.0   0.00  
 128    5:10    2.0    53   99.9     5    167.3     7.2    999.0   0.00  
 128    5:20    7.0    53   99.9     4    169.0     7.8    999.0   0.00  
 128    5:30   10.0    53   99.9     3    172.4     7.2    999.0   0.00  
 128    5:40   15.0    53   99.9     3    178.6     5.4    999.0   0.00  
 128    5:50   24.0    53   99.9     2    183.7     4.8    999.0   0.00  
 128    6:00   33.0    53   99.9     3    180.0     4.8    999.0   0.00  
 128    6:10   41.0    54   99.9     3    169.5     6.0    999.0   0.00  
 128    6:20   52.0    54   99.9     3    165.4     6.6    999.0   0.00  
 128    6:30   63.0    54   99.9     4    170.1     6.0    999.0   0.00  
 128    6:40   76.0    54   99.9     2    177.8     4.2    999.0   0.00  
 128    6:50   84.0    54   99.9     1    199.1     4.2    999.0   0.00  
 128    7:00  118.0    54   99.9     2    166.7     7.2    999.0   0.00  
 128    7:10  152.0    54   99.9     2    111.2     4.2    999.0   0.00  
 128    7:20  145.0    54   99.9     1    150.2     4.8    999.0   0.00  
 128    7:30  140.0    54   99.9     2    154.2     4.2    999.0   0.00  
 128    7:40  167.0    54   99.9     3    153.5     6.0    999.0   0.00  
 128    7:50  169.0    54   99.9     4    181.9     7.2    999.0   0.00  
 128    8:00  171.0    54   99.9     3    183.1     6.6    999.0   0.00  
 128    8:10  206.0    54   99.9     2    169.7     6.6    999.0   0.00  
 128    8:20  236.0    55   99.9     3    172.6     6.0    999.0   0.00  
 128    8:30  212.0    55   99.9     4    177.2     7.2    999.0   0.00  
 128    8:40  272.0    54   99.9     4    171.7     7.2    999.0   0.00  
 128    8:50  309.0    55   99.9     3    170.7     6.6    999.0   0.00  
 128    9:00  326.0    55   99.9     3    172.7     6.6    999.0   0.00  
 128    9:10  368.0    56   99.9     1    146.8     4.2    999.0   0.00  
 128    9:20  485.0    57   99.9     2     78.9     5.4    999.0   0.00  
 128    9:30  592.0    57   99.9     3     43.1     5.4    999.0   0.00  
 128    9:40  711.0    58   99.9     3     49.7     6.6    999.0   0.00  
 128    9:50  729.0    58   99.9     3    178.3     6.0    999.0   0.00  
 128   10:00  689.0    57   99.9     7    187.9    10.2    999.0   0.00  
 128   10:10  596.0    56   99.9     7    194.7    10.2    999.0   0.00  
 128   10:20  694.0    56   58.1     7    184.7    10.8    999.0   0.00  
 128   10:30  755.0    56   14.8     8    180.9     9.6    999.0   0.00  
 128   10:40  852.0    57   77.5     7    182.0    10.8    999.0   0.00  
 128   10:50  726.0    57   99.9     8    183.1    11.9    999.0   0.00  
 128   11:00  837.0    57   99.9     8    182.7    10.8    999.0   0.00  
 128   11:10  931.0    58   99.9     7    178.1    11.3    999.0   0.00  
 128   11:20  932.0    59   45.1     7    188.7    11.3    999.0   0.00  
 128   11:30  935.0    59   17.9     7    192.0    11.9    999.0   0.00  
 128   11:40  931.0    60    7.9     5    183.1     8.4    999.0   0.00  
 128   11:50  932.0    63   21.1     2    200.5     7.2    999.0   0.00  
 128   12:00  936.0    64   22.0     3    157.2     6.6    999.0   0.00  
 128   12:10  931.0    65   75.7     2    177.8     6.0    999.0   0.00  
 128   12:20  932.0    66   70.9     3    171.3     9.0    999.0   0.00  
 128   12:30  926.0    64   73.1     5    170.7     9.6    999.0   0.00  
 128   12:40  784.0    65   69.9     5     14.4    11.3    999.0   0.00  
 128   12:50  911.0    66   68.5     9      4.8    13.1    999.0   0.00  
 128   13:00  901.0    65   69.7     8      7.5    11.3    999.0   0.00  
 128   13:10  890.0    65   69.0     7    354.2    10.2    999.0   0.00  
 128   13:20  850.0    65   69.2    10      1.5    13.7    999.0   0.00  
 128   13:30  865.0    64   69.8     9      0.2    13.1    999.0   0.00  
 128   13:40  848.0    64   70.5     9      2.5    11.9    999.0   0.00  
 128   13:50  831.0    64   70.2     9      3.7    12.5    999.0   0.00  
 128   14:00  812.0    64   69.9     9      3.2    13.1    999.0   0.00  
 128   14:10  791.0    64   70.7    10    358.4    14.9    999.0   0.00  
 128   14:20  769.0    63   72.9    10    358.4    14.3    999.0   0.00  
 128   14:30  745.0    63   72.9    10    355.5    13.7    999.0   0.00  
 128   14:40  721.0    63   72.5     8    357.8    11.3    999.0   0.00  
 128   14:50  696.0    63   71.5     8      1.1    11.9    999.0   0.00  
 128   15:00  669.0    64   71.0     7    347.6    11.3    999.0   0.00  
 128   15:10  641.0    64   70.0     7    341.2    10.2    999.0   0.00  
 128   15:20  613.0    64   69.6     7    345.9    10.2    999.0   0.00  
 128   15:30  585.0    64   71.0     8    349.2    10.8    999.0   0.00  
 128   15:40  555.0    63   72.4     8    334.0    10.8    999.0   0.00  
 128   15:50  525.0    63   72.6     8    355.2    10.8    999.0   0.00  
 128   16:00  489.0    62   75.1     9      0.1    13.1    999.0   0.00  
 128   16:10  339.0    61   79.3    10    352.8    14.9    999.0   0.00  
 128   16:20  225.0    58   41.2    10      0.6    14.9    999.0   0.00  
 128   16:30  156.0    57    0.4    12      3.4    14.9    999.0   0.00  
 128   16:40  133.0    56   53.2    13      5.6    16.1    999.0   0.00  
 128   16:50  121.0    56   99.9    12      6.2    15.5    999.0   0.00  
 128   17:00  100.0    56   99.9    12      0.7    16.1    999.0   0.00  
 128   17:10   86.0    55   99.9    12    359.9    16.1    999.0   0.00  
 128   17:20   76.0    55   99.9    12    356.4    14.9    999.0   0.00  
 128   17:30   62.0    55   99.9    11      0.4    14.9    999.0   0.00  
 128   17:40   50.0    55   99.9    10    346.2    14.3    999.0   0.00  
 128   17:50   46.0    54   99.9    11    346.6    14.9    999.0   0.00  
 128   18:00   33.0    54   99.9    11    343.8    14.9    999.0   0.00  
 128   18:10   26.0    54   99.9    12      5.7    17.3    999.0   0.00  
 128   18:20   21.0    54   99.9    13      7.9    16.1    999.0   0.00  
 128   18:30    9.0    54   99.9    12    357.6    15.5    999.0   0.00  
 128   18:40    6.0    54   99.9    12    360.0    14.9    999.0   0.00  
 128   18:50    1.0    54   99.9    11    358.8    14.3    999.0   0.00  
 128   19:00    0.0    53   99.9    12    356.3    14.3    999.0   0.00  
 128   19:10    0.0    53   99.9    11      2.0    14.3    999.0   0.00  
 128   19:20    0.0    53   99.9    10      4.8    13.7    999.0   0.00  
 128   19:30    0.0    53   99.9    11      6.1    13.1    999.0   0.00  
 128   19:40    0.0    53   99.9     8    356.3    10.8    999.0   0.00  
 128   19:50    0.0    53   99.9     7    337.3     9.0    999.0   0.00  
 128   20:00    0.0    53   99.9     8    350.5    10.2    999.0   0.00  
 128   20:10    0.0    53   99.9     8    354.7    11.9    999.0   0.00  
 128   20:20    0.0    53   99.9     8    353.8    10.8    999.0   0.00  
 128   20:30    0.0    53   99.9     8      0.5    10.2    999.0   0.00  
 128   20:40    0.0    53   99.9     6    349.6     7.2    999.0   0.00  
 128   20:50    0.0    53   99.9     6    353.1     7.2    999.0   0.00  
 128   21:00    0.0    53   99.9     4    337.2     6.6    999.0   0.00  
 128   21:10    0.0    53   99.9     4    340.1     5.4    999.0   0.00  
 128   21:20    0.0    53   99.9     4    349.1     5.4    999.0   0.00  
 128   21:30    0.0    53   99.9     2    343.7     4.2    999.0   0.00  
 128   21:40    0.0    53   99.9     2      8.0     4.2    999.0   0.00  
 128   21:50    0.0    53   99.9     2    344.3     5.4    999.0   0.00  
 128   22:00    0.0    53   99.9     2    307.1     3.6    999.0   0.00  
 128   22:10    0.0    53   99.9     3    328.2     6.0    999.0   0.00  
 128   22:20    0.0    53   99.9     4      9.3     6.6    999.0   0.00  
 128   22:30    0.0    53   99.9     5    358.5     7.8    999.0   0.00  
 128   22:40    0.0    53   99.9     4      3.4     5.4    999.0   0.00  
 128   22:50    0.0    53   99.9     3     12.0     4.8    999.0   0.00  
 128   23:00    0.0    53   99.9     1     47.2     3.0    999.0   0.00  
 128   23:10    0.0    53   99.9     1     79.9     3.6    999.0   0.00  
 128   23:20    0.0    54   99.9     2     74.9     4.2    999.0   0.00  
 128   23:30    0.0    54   99.9     1    101.4     3.0    999.0   0.00  
 128   23:40    0.0    54   99.9     1     24.2     3.0    999.0   0.00  
 128   23:50    0.0    54   99.9     1    115.0     2.4    999.0   0.00  
 129    0:00    0.0    54   99.9     4     19.6     6.0    999.0   0.00  
 129    0:10    0.0    54   99.9     6      7.0     8.4    999.0   0.00  
 129    0:20    0.0    54   99.9     6      9.0     7.8    999.0   0.00  
 129    0:30    0.0    54   99.9     4     13.5     5.4    999.0   0.00  
 129    0:40    0.0    54   99.9     3     30.1     5.4    999.0   0.00  
 129    0:50    0.0    54   99.9     3     47.4     4.2    999.0   0.00  
 129    1:00    0.0    54   99.9     2     55.4     3.6    999.0   0.00  

Return to Cactus Peak graphs page.


Western Regional Climate Center,wrcc@dri.edu